ミラノ/マルペンサ の空港の天気 - METARとTAF

ミラノ・マルペンサ国際空港 ( LIMC / MXP ) - イタリア ミラノ
飛行場実況気象(Metar)
観測時間10/20 06:20 CEST (10/20 04:20 UTC)
風向・風速東南東 4m/s
視程8000m
天気現象
全天を覆う雲 雲底高度 1220m
気温16℃
湿度100%
気圧1016hPa
METARLIMC 200420Z 12008KT 8000 OVC040 16/16 Q1016 NOSIG
過去の天気等 Google飛行場航空写真 Wunderground天気予報

過去48時間のMETAR

飛行場予報(TAF)
発表時間: 10/20 01:00 CEST (10/19 23:00 UTC)
予報対象時間: 20日2時 CEST ~ 21日8時 CEST
風向・風速東南東 3m/s
視程7000m
天気現象
全天の4割程度の雲 雲底高度 760m
全天の8割程度の雲 雲底高度 1520m
20日20時 CEST ~ 21日8時 CEST に一時的に
視程4000m
天気現象雷雨
TAF LIMC 192300Z 2000/2106 12006KT 7000 RA SCT025 BKN050
TEMPO 2018/2106 4000 TSRA